Goodwin, Arkansas
Current Conditions -  °F | °C
As of 1:15 PM on Sunday 21 Dec 2014 (Local Time) from KSGT Reporting Station
Clear Clear  
Wind Chill: 12°   Ceiling: Unl
Heat Index: 12°   Visibility: NA
Dew Point:   Wind: 12mph
Humidity: 51%   Direction: 140°SE
Pressure: 30.06"   Gusts: NA
Location:  34.94°N, 91.02°W
Report Text: KSGT 211915Z 14010KT CLR 12/02 A3006 RMK AO1
Loading
Personal Weather Stations






























Interactive Weather Map New forecast layout! Learn more

10-Day Weather Forecast

Advertisements
Track Severe Weather on mobile